Time;durP1;ratioP1;P1;durP2;ratioP2;P2;SDS_P1;SDS_P2;PMS_P1;PMS_P2;Temp;Humidity;BMP_temperature;BMP_pressure;BME280_temperature;BME280_humidity;BME280_pressure;Samples;Min_cycle;Max_cycle;Signal;HPM_P1;HPM_P2
2021/04/02 00:01:38;;;;;;;7.70;3.00;;;11.10;59.90;;;;;;4878854;29;20033;-76
2021/04/02 00:04:05;;;;;;;3.40;2.42;;;11.00;59.90;;;;;;4878232;29;20037;-77
2021/04/02 00:06:31;;;;;;;5.28;3.00;;;11.00;60.00;;;;;;4878447;29;20053;-76
2021/04/02 00:08:58;;;;;;;7.10;3.03;;;10.90;59.70;;;;;;4878606;29;20395;-76
2021/04/02 00:11:24;;;;;;;7.53;2.97;;;10.80;60.00;;;;;;4878915;29;20045;-76
2021/04/02 00:13:50;;;;;;;5.97;3.15;;;10.70;59.90;;;;;;4878275;29;20397;-76
2021/04/02 00:16:19;;;;;;;11.85;3.30;;;10.60;59.80;;;;;;4878133;29;20044;-77
2021/04/02 00:18:46;;;;;;;4.50;2.35;;;10.50;60.00;;;;;;4878093;29;20041;-76
2021/04/02 00:21:15;;;;;;;6.30;3.05;;;10.40;60.00;;;;;;4878406;29;20033;-77
2021/04/02 00:23:42;;;;;;;5.13;2.63;;;10.40;60.40;;;;;;4878004;29;20072;-76
2021/04/02 00:26:13;;;;;;;5.30;3.15;;;10.30;60.50;;;;;;4878289;29;20041;-76
2021/04/02 00:28:40;;;;;;;5.22;2.85;;;10.20;60.70;;;;;;4878147;29;20056;-77
2021/04/02 00:31:07;;;;;;;8.13;3.17;;;10.10;61.00;;;;;;4886021;29;20080;-75
2021/04/02 00:33:33;;;;;;;3.45;2.45;;;10.10;61.00;;;;;;4878165;29;20049;-75
2021/04/02 00:36:01;;;;;;;4.60;2.72;;;10.00;60.80;;;;;;4887551;29;20029;-75
2021/04/02 00:38:29;;;;;;;5.85;2.60;;;10.00;61.10;;;;;;4886898;29;20048;-75
2021/04/02 00:40:59;;;;;;;5.78;2.75;;;9.90;61.50;;;;;;4880566;29;20059;-75
2021/04/02 00:43:28;;;;;;;6.55;2.80;;;9.80;61.80;;;;;;4895687;29;20033;-76
2021/04/02 00:45:54;;;;;;;6.97;2.03;;;9.70;61.90;;;;;;4875905;29;20057;-76
2021/04/02 00:48:21;;;;;;;12.07;3.67;;;9.60;62.00;;;;;;4878570;29;20044;-76
2021/04/02 00:50:51;;;;;;;6.55;2.50;;;9.50;62.00;;;;;;4878409;29;20045;-75
2021/04/02 00:53:19;;;;;;;5.50;2.38;;;9.50;62.30;;;;;;4877708;29;20025;-76
2021/04/02 00:55:45;;;;;;;5.10;2.17;;;9.50;61.70;;;;;;4877426;29;20098;-76
2021/04/02 00:58:16;;;;;;;6.90;2.35;;;9.40;61.60;;;;;;4878408;29;20383;-76
2021/04/02 01:00:43;;;;;;;7.32;2.83;;;9.30;61.80;;;;;;4878566;29;20056;-76
2021/04/02 01:03:10;;;;;;;9.02;2.83;;;9.30;62.10;;;;;;4876142;29;20041;-76
2021/04/02 01:05:45;;;;;;;5.60;2.85;;;9.20;61.70;;;;;;4878565;29;20367;-76
2021/04/02 01:08:16;;;;;;;5.05;2.78;;;9.20;61.60;;;;;;4893303;29;20052;-76
2021/04/02 01:10:44;;;;;;;6.72;2.67;;;9.10;61.60;;;;;;4883737;29;20048;-76
2021/04/02 01:13:16;;;;;;;9.70;2.90;;;9.10;61.70;;;;;;4880973;29;20382;-76
2021/04/02 01:16:09;;;;;;;8.63;2.85;;;9.00;61.80;;;;;;4880402;29;20048;-75
2021/04/02 01:18:43;;;;;;;5.25;2.65;;;8.90;61.80;;;;;;4878649;29;20037;-75
2021/04/02 01:21:22;;;;;;;6.30;3.63;;;8.80;61.40;;;;;;4881140;29;20399;-76
2021/04/02 01:24:00;;;;;;;8.00;2.90;;;8.70;61.60;;;;;;4881136;29;20518;-75
2021/04/02 01:26:53;;;;;;;9.00;3.20;;;8.70;61.70;;;;;;4880215;29;20041;-76
2021/04/02 01:29:24;;;;;;;6.63;3.13;;;8.60;61.90;;;;;;4880503;29;20045;-76
2021/04/02 01:31:56;;;;;;;5.78;2.75;;;8.50;61.70;;;;;;4880984;29;20037;-76
2021/04/02 01:34:35;;;;;;;5.25;2.97;;;8.40;61.90;;;;;;4864813;29;20048;-76
2021/04/02 01:37:06;;;;;;;4.97;2.78;;;8.40;62.10;;;;;;4881267;29;20045;-76
2021/04/02 01:39:37;;;;;;;9.00;3.20;;;8.30;62.10;;;;;;4881101;29;20037;-77
2021/04/02 01:42:05;;;;;;;;;;;8.20;62.60;;;;;;4881445;29;20048;-76
2021/04/02 01:44:36;;;;;;;4.78;2.92;;;8.10;62.60;;;;;;4881210;29;19912;-75
2021/04/02 01:47:04;;;;;;;44.13;23.77;;;8.10;63.20;;;;;;4879419;29;20044;-76
2021/04/02 01:49:33;;;;;;;8.88;4.65;;;8.00;63.10;;;;;;4880995;29;20063;-75
2021/04/02 01:52:00;;;;;;;12.82;3.95;;;7.90;63.70;;;;;;4880053;29;20033;-76
2021/04/02 01:54:29;;;;;;;12.00;3.72;;;7.80;64.10;;;;;;4881319;29;20037;-75
2021/04/02 01:56:57;;;;;;;11.50;3.65;;;7.80;64.10;;;;;;4879169;29;20488;-75
2021/04/02 01:59:28;;;;;;;7.28;3.17;;;7.70;64.40;;;;;;4879313;29;20065;-75
2021/04/02 02:01:58;;;;;;;6.95;3.92;;;7.60;64.80;;;;;;4887472;29;20044;-76
2021/04/02 02:04:25;;;;;;;7.22;3.28;;;7.60;65.10;;;;;;4881129;29;20045;-76
2021/04/02 02:06:56;;;;;;;6.55;3.92;;;7.50;65.50;;;;;;4878850;29;20065;-75
2021/04/02 02:09:30;;;;;;;7.47;3.65;;;7.40;65.90;;;;;;4878926;29;20407;-76
2021/04/02 02:12:04;;;;;;;5.35;3.72;;;7.30;66.20;;;;;;4878562;29;20048;-77
2021/04/02 02:14:40;;;;;;;7.88;4.00;;;7.30;66.60;;;;;;4879407;29;20049;-76
2021/04/02 02:17:20;;;;;;;9.85;3.50;;;7.20;66.80;;;;;;4878890;29;20372;-76
2021/04/02 02:19:48;;;;;;;7.70;4.30;;;7.10;67.20;;;;;;4877809;29;20052;-77
2021/04/02 02:22:18;;;;;;;5.90;3.97;;;7.00;67.70;;;;;;4879311;29;20049;-77
2021/04/02 02:24:57;;;;;;;7.20;4.10;;;7.00;67.90;;;;;;4878611;29;20045;-75
2021/04/02 02:27:24;;;;;;;12.52;4.30;;;6.90;68.20;;;;;;4878980;29;20290;-75
2021/04/02 02:29:52;;;;;;;10.80;4.18;;;6.90;68.80;;;;;;4879016;29;20051;-75
2021/04/02 02:32:19;;;;;;;7.50;3.45;;;6.80;69.20;;;;;;4879999;29;20068;-75
2021/04/02 02:34:45;;;;;;;10.18;4.55;;;6.70;69.70;;;;;;4880269;29;20412;-76
2021/04/02 02:37:12;;;;;;;5.65;3.67;;;6.60;70.20;;;;;;4878077;29;20059;-75
2021/04/02 02:39:48;;;;;;;7.90;4.22;;;6.50;70.90;;;;;;4893296;29;20395;-75
2021/04/02 02:42:16;;;;;;;10.68;3.97;;;6.60;71.40;;;;;;4879461;29;20064;-75
2021/04/02 02:44:44;;;;;;;6.45;3.80;;;6.40;72.00;;;;;;4879617;29;20053;-75
2021/04/02 02:47:12;;;;;;;8.63;4.43;;;6.40;72.50;;;;;;4880282;29;20057;-75
2021/04/02 02:49:49;;;;;;;8.07;4.32;;;6.40;73.20;;;;;;4878829;29;20395;-75
2021/04/02 02:52:16;;;;;;;11.65;6.55;;;6.40;73.50;;;;;;4878417;29;20045;-76
2021/04/02 02:54:44;;;;;;;9.32;5.13;;;6.30;74.20;;;;;;4878388;29;20044;-76
2021/04/02 02:57:11;;;;;;;8.45;4.88;;;6.30;74.60;;;;;;4878005;29;20056;-76
2021/04/02 02:59:39;;;;;;;8.25;4.38;;;6.20;75.50;;;;;;4878071;29;20052;-76
2021/04/02 03:02:12;;;;;;;10.52;5.63;;;6.20;76.40;;;;;;4879826;29;20495;-76
2021/04/02 03:04:41;;;;;;;10.68;5.43;;;6.20;77.20;;;;;;4879902;29;20498;-76
2021/04/02 03:07:09;;;;;;;12.55;5.28;;;6.10;78.00;;;;;;4879456;29;20115;-76
2021/04/02 03:09:40;;;;;;;9.07;5.45;;;6.10;79.00;;;;;;4879642;29;20045;-75
2021/04/02 03:12:08;;;;;;;8.02;5.30;;;6.00;80.20;;;;;;4877051;29;20592;-75
2021/04/02 03:14:36;;;;;;;11.23;5.43;;;5.90;81.50;;;;;;4879742;29;20029;-76
2021/04/02 03:17:06;;;;;;;10.80;5.50;;;5.90;82.60;;;;;;4878556;29;20057;-76
2021/04/02 03:19:38;;;;;;;12.55;5.15;;;5.90;84.00;;;;;;4879612;29;20053;-75
2021/04/02 03:22:12;;;;;;;8.75;5.45;;;5.80;86.00;;;;;;4877494;29;20049;-75
2021/04/02 03:24:47;;;;;;;9.20;5.47;;;5.80;87.70;;;;;;4880008;29;20044;-75
2021/04/02 03:27:19;;;;;;;9.88;5.93;;;5.80;89.20;;;;;;4877563;29;20045;-76
2021/04/02 03:29:48;;;;;;;9.65;5.43;;;5.70;90.30;;;;;;4877124;29;20049;-75
2021/04/02 03:32:16;;;;;;;11.30;7.10;;;5.60;91.50;;;;;;4877651;29;20056;-76
2021/04/02 03:34:43;;;;;;;10.20;6.03;;;5.60;92.30;;;;;;4878795;29;20041;-76
2021/04/02 03:37:13;;;;;;;11.70;7.45;;;5.50;93.40;;;;;;4877874;29;20398;-76
2021/04/02 03:39:50;;;;;;;12.23;6.50;;;5.50;94.50;;;;;;4877342;29;20048;-76
2021/04/02 03:42:21;;;;;;;15.63;7.45;;;5.50;95.70;;;;;;4878293;29;20044;-76
2021/04/02 03:44:50;;;;;;;14.00;7.10;;;5.50;96.30;;;;;;4877777;29;20048;-76
2021/04/02 03:47:20;;;;;;;12.95;7.57;;;5.50;97.20;;;;;;4892693;29;20148;-75
2021/04/02 03:49:51;;;;;;;9.82;6.72;;;5.50;97.90;;;;;;4892834;29;20047;-74
2021/04/02 03:52:39;;;;;;;11.02;6.85;;;5.40;98.80;;;;;;4879016;29;20037;-75
2021/04/02 03:55:07;;;;;;;13.93;7.07;;;5.30;99.80;;;;;;4878998;29;20067;-76
2021/04/02 03:57:38;;;;;;;12.73;7.88;;;5.30;99.90;;;;;;4893535;29;20044;-76
2021/04/02 04:00:13;;;;;;;13.25;7.57;;;5.20;99.90;;;;;;4892440;29;20037;-76
2021/04/02 04:02:43;;;;;;;11.88;7.05;;;5.20;99.90;;;;;;4878763;29;20045;-75
2021/04/02 04:05:15;;;;;;;15.43;8.40;;;5.20;99.90;;;;;;4893038;29;20127;-75
2021/04/02 04:07:44;;;;;;;14.65;7.60;;;5.20;99.90;;;;;;4893005;29;20048;-76
2021/04/02 04:10:18;;;;;;;15.30;8.05;;;5.10;99.90;;;;;;4879095;29;20064;-76
2021/04/02 04:12:48;;;;;;;17.73;8.63;;;5.00;99.90;;;;;;4892629;29;20049;-76
2021/04/02 04:15:16;;;;;;;15.85;8.57;;;4.90;99.90;;;;;;4892892;29;20052;-76
2021/04/02 04:17:47;;;;;;;12.55;7.82;;;4.90;99.90;;;;;;4877283;29;20044;-76
2021/04/02 04:20:18;;;;;;;18.00;9.13;;;4.90;99.90;;;;;;4877698;29;20490;-76
2021/04/02 04:22:57;;;;;;;14.60;7.82;;;4.90;99.90;;;;;;4876383;29;20049;-76
2021/04/02 04:25:25;;;;;;;14.32;7.95;;;4.80;99.90;;;;;;4878811;29;20049;-76
2021/04/02 04:27:55;;;;;;;12.85;8.38;;;4.70;99.90;;;;;;4878605;29;20395;-76
2021/04/02 04:30:24;;;;;;;13.43;8.70;;;4.70;99.90;;;;;;4878673;29;20383;-77
2021/04/02 04:32:50;;;;;;;13.45;9.32;;;4.60;99.90;;;;;;4878395;29;20033;-76
2021/04/02 04:35:18;;;;;;;16.48;10.18;;;4.60;99.90;;;;;;4878285;29;20040;-76
2021/04/02 04:37:45;;;;;;;14.25;9.02;;;4.50;99.90;;;;;;4878909;29;20378;-77
2021/04/02 04:40:15;;;;;;;17.65;9.55;;;4.50;99.90;;;;;;4878326;29;20057;-77
2021/04/02 04:42:44;;;;;;;15.35;8.80;;;4.50;99.90;;;;;;4881037;29;20053;-77
2021/04/02 04:45:13;;;;;;;13.60;8.57;;;4.40;99.90;;;;;;4881752;29;20064;-75
2021/04/02 04:47:39;;;;;;;18.00;9.13;;;4.40;99.90;;;;;;4882330;29;20455;-76
2021/04/02 04:50:07;;;;;;;17.05;10.73;;;4.40;99.90;;;;;;4881674;29;20060;-75
2021/04/02 04:52:39;;;;;;;14.98;9.13;;;4.40;99.90;;;;;;4881554;29;20037;-75
2021/04/02 04:55:09;;;;;;;18.27;9.57;;;4.40;99.90;;;;;;4880637;29;20045;-75
2021/04/02 04:57:37;;;;;;;17.25;9.75;;;4.40;99.90;;;;;;4881559;29;20064;-75
2021/04/02 05:00:05;;;;;;;16.00;10.30;;;4.40;99.90;;;;;;4881092;29;20060;-74
2021/04/02 05:02:33;;;;;;;16.65;9.95;;;4.40;99.90;;;;;;4882219;29;20033;-76
2021/04/02 05:05:00;;;;;;;16.30;9.85;;;4.40;99.90;;;;;;4881444;29;20037;-75
2021/04/02 05:07:29;;;;;;;20.15;11.38;;;4.40;99.90;;;;;;4881830;29;20036;-77
2021/04/02 05:09:57;;;;;;;18.25;10.90;;;4.30;99.90;;;;;;4881553;29;20037;-75
2021/04/02 05:12:25;;;;;;;18.98;11.57;;;4.30;99.90;;;;;;4881672;29;20427;-75
2021/04/02 05:14:52;;;;;;;19.90;11.45;;;4.30;99.90;;;;;;4881382;29;20490;-75
2021/04/02 05:17:21;;;;;;;20.83;9.98;;;4.30;99.90;;;;;;4881508;29;20040;-76
2021/04/02 05:19:49;;;;;;;17.77;10.25;;;4.20;99.90;;;;;;4881427;29;20060;-75
2021/04/02 05:22:16;;;;;;;17.95;11.60;;;4.20;99.90;;;;;;4881549;29;20033;-76
2021/04/02 05:24:42;;;;;;;20.27;12.00;;;4.20;99.90;;;;;;4881383;29;20033;-76
2021/04/02 05:27:08;;;;;;;17.98;9.85;;;4.30;99.90;;;;;;4881184;29;20617;-77
2021/04/02 05:29:34;;;;;;;16.00;10.40;;;4.30;99.90;;;;;;4881792;29;20486;-76
2021/04/02 05:32:01;;;;;;;16.40;11.02;;;4.40;99.90;;;;;;4880686;29;20501;-76
2021/04/02 05:34:27;;;;;;;18.23;10.70;;;4.40;99.90;;;;;;4881972;29;20040;-76
2021/04/02 05:36:53;;;;;;;19.42;11.35;;;4.40;99.90;;;;;;4880714;29;20040;-76
2021/04/02 05:39:19;;;;;;;18.42;10.48;;;4.40;99.90;;;;;;4881245;29;20040;-76
2021/04/02 05:41:46;;;;;;;17.23;10.27;;;4.40;99.90;;;;;;4881444;29;20040;-76
2021/04/02 05:44:17;;;;;;;14.20;10.38;;;4.50;99.90;;;;;;4880957;29;20044;-76
2021/04/02 05:46:44;;;;;;;14.90;9.68;;;4.80;99.90;;;;;;4881041;29;20045;-76
2021/04/02 05:49:12;;;;;;;13.95;8.70;;;5.60;99.90;;;;;;4880198;29;20506;-76
2021/04/02 05:51:40;;;;;;;14.80;9.45;;;6.30;99.90;;;;;;4881025;29;20032;-77
2021/04/02 05:54:11;;;;;;;11.40;7.72;;;6.90;99.90;;;;;;4879273;29;20483;-76
2021/04/02 05:56:38;;;;;;;11.20;7.70;;;7.20;99.90;;;;;;4881124;29;20053;-77
2021/04/02 05:59:05;;;;;;;10.00;7.65;;;7.90;96.50;;;;;;4880857;29;20467;-76
2021/04/02 06:01:33;;;;;;;12.40;8.32;;;8.00;94.30;;;;;;4879813;29;20522;-77
2021/04/02 06:03:59;;;;;;;11.82;8.13;;;8.40;91.90;;;;;;4880826;29;20037;-77
2021/04/02 06:06:26;;;;;;;11.73;7.78;;;8.60;90.70;;;;;;4880630;29;20049;-77
2021/04/02 06:08:54;;;;;;;10.77;7.55;;;8.50;90.30;;;;;;4879926;29;20044;-77
2021/04/02 06:11:20;;;;;;;10.23;6.72;;;8.70;89.80;;;;;;4879218;29;20482;-77
2021/04/02 06:13:46;;;;;;;9.27;7.35;;;8.80;87.70;;;;;;4880995;29;20037;-77
2021/04/02 06:16:12;;;;;;;10.20;7.00;;;9.10;85.80;;;;;;4880167;29;20036;-77
2021/04/02 06:18:40;;;;;;;11.32;7.00;;;9.10;84.80;;;;;;4880659;29;20037;-74
2021/04/02 06:21:08;;;;;;;9.63;6.45;;;9.40;82.50;;;;;;4880238;29;20041;-74
2021/04/02 06:23:36;;;;;;;12.00;7.43;;;9.40;82.80;;;;;;4880828;29;20382;-76
2021/04/02 06:26:09;;;;;;;8.65;6.75;;;9.40;82.00;;;;;;4880109;29;20045;-76
2021/04/02 06:28:38;;;;;;;7.45;6.63;;;9.00;82.90;;;;;;4880503;29;20025;-76
2021/04/02 06:31:05;;;;;;;8.45;6.68;;;9.10;82.40;;;;;;4880113;29;20056;-76
2021/04/02 06:33:38;;;;;;;8.85;6.90;;;9.40;82.80;;;;;;4880655;29;20188;-76
2021/04/02 06:36:13;;;;;;;9.77;7.57;;;9.90;79.20;;;;;;4879649;29;20037;-76
2021/04/02 06:38:42;;;;;;;7.63;6.78;;;9.80;79.60;;;;;;4878291;29;20048;-76
2021/04/02 06:41:10;;;;;;;6.72;6.03;;;10.00;78.40;;;;;;4879475;29;20044;-76
2021/04/02 06:43:46;;;;;;;7.63;6.82;;;9.40;79.30;;;;;;4879869;29;20048;-76
2021/04/02 06:46:17;;;;;;;8.30;6.68;;;9.30;80.50;;;;;;4879539;29;20045;-75
2021/04/02 06:48:43;;;;;;;;;;;9.60;78.80;;;;;;4880073;29;20033;-75
2021/04/02 06:51:15;;;;;;;8.10;5.75;;;9.60;78.60;;;;;;4879622;29;19911;-75
2021/04/02 06:53:46;;;;;;;8.60;6.20;;;9.60;77.90;;;;;;4879755;29;20419;-76
2021/04/02 06:56:14;;;;;;;10.45;6.93;;;10.10;76.70;;;;;;4879513;29;20037;-77
2021/04/02 06:58:42;;;;;;;7.28;6.07;;;9.80;76.60;;;;;;4879867;29;20075;-75
2021/04/02 07:01:12;;;;;;;7.50;5.78;;;10.50;74.00;;;;;;4877553;29;20045;-75
2021/04/02 07:03:40;;;;;;;7.25;6.30;;;11.00;72.30;;;;;;4879883;29;20395;-76
2021/04/02 07:06:07;;;;;;;9.75;6.20;;;10.20;72.20;;;;;;4878419;29;20044;-75
2021/04/02 07:08:35;;;;;;;8.10;5.72;;;9.90;73.30;;;;;;4879932;29;20037;-75
2021/04/02 07:11:01;;;;;;;6.78;6.07;;;10.20;72.20;;;;;;4878989;29;20420;-75
2021/04/02 07:13:35;;;;;;;8.25;5.90;;;10.10;72.20;;;;;;4879925;29;20033;-75
2021/04/02 07:16:03;;;;;;;6.35;5.55;;;10.00;73.10;;;;;;4879196;29;20033;-75
2021/04/02 07:18:30;;;;;;;6.95;6.20;;;10.10;71.40;;;;;;4879817;29;20463;-76
2021/04/02 07:20:56;;;;;;;6.47;5.15;;;10.80;69.50;;;;;;4878907;29;20483;-75
2021/04/02 07:23:25;;;;;;;7.82;5.55;;;11.00;67.60;;;;;;4879108;29;20129;-75
2021/04/02 07:25:55;;;;;;;6.40;5.47;;;11.50;66.60;;;;;;4886898;29;20399;-74
2021/04/02 07:28:23;;;;;;;6.03;5.38;;;12.30;63.40;;;;;;4885665;29;20032;-75
2021/04/02 07:30:51;;;;;;;6.35;5.10;;;12.50;62.00;;;;;;4885824;29;20368;-74
2021/04/02 07:33:18;;;;;;;7.15;4.78;;;13.00;59.40;;;;;;4881217;29;20026;-75
2021/04/02 07:35:57;;;;;;;6.60;5.22;;;12.70;59.60;;;;;;4880586;29;20033;-75
2021/04/02 07:38:29;;;;;;;6.50;5.78;;;12.30;61.30;;;;;;4879398;29;20041;-75
2021/04/02 07:40:56;;;;;;;5.88;5.10;;;11.40;63.20;;;;;;4878382;29;20493;-75
2021/04/02 07:43:29;;;;;;;7.22;5.28;;;11.60;62.50;;;;;;4877766;29;20487;-75
2021/04/02 07:46:20;;;;;;;6.22;5.47;;;11.10;63.80;;;;;;4883100;29;20127;-75
2021/04/02 07:48:59;;;;;;;6.57;5.78;;;11.80;62.20;;;;;;4895685;29;20136;-75
2021/04/02 07:51:43;;;;;;;5.85;5.25;;;12.40;60.00;;;;;;4889128;29;20466;-75
2021/04/02 07:54:33;;;;;;;6.65;5.43;;;12.70;59.00;;;;;;4878943;29;20049;-76
2021/04/02 07:57:10;;;;;;;6.28;5.50;;;13.20;57.40;;;;;;4871117;29;20041;-76
2021/04/02 07:59:47;;;;;;;6.57;5.20;;;12.50;58.50;;;;;;4877542;29;20056;-77
2021/04/02 08:02:28;;;;;;;7.47;5.32;;;12.40;58.90;;;;;;4878396;29;20040;-76
2021/04/02 08:04:56;;;;;;;;;;;12.40;58.70;;;;;;4879221;29;20037;-74
2021/04/02 08:07:40;;;;;;;6.82;5.97;;;13.00;57.60;;;;;;4889152;29;19922;-75
2021/04/02 08:10:08;;;;;;;6.85;5.20;;;12.60;56.20;;;;;;4890511;29;20032;-76
2021/04/02 08:12:35;;;;;;;5.63;5.03;;;12.60;57.10;;;;;;4889320;29;20029;-76
2021/04/02 08:15:10;;;;;;;6.82;5.43;;;12.30;57.70;;;;;;4888880;29;20036;-74
2021/04/02 08:17:38;;;;;;;5.60;5.05;;;12.40;56.90;;;;;;4890700;29;20037;-76
2021/04/02 08:20:10;;;;;;;6.68;5.53;;;12.60;57.00;;;;;;4893933;29;20524;-75
2021/04/02 08:22:37;;;;;;;7.40;5.72;;;12.80;56.30;;;;;;4889436;29;20371;-76
2021/04/02 08:25:09;;;;;;;6.32;5.63;;;11.20;58.90;;;;;;4882368;29;20395;-76
2021/04/02 08:27:36;;;;;;;8.20;6.07;;;10.40;61.50;;;;;;4880662;29;20037;-75
2021/04/02 08:30:06;;;;;;;8.63;5.90;;;10.30;61.10;;;;;;4880878;29;20060;-77
2021/04/02 08:32:44;;;;;;;10.30;6.50;;;10.50;61.30;;;;;;4880697;29;20392;-76
2021/04/02 08:35:13;;;;;;;9.90;6.00;;;10.10;62.00;;;;;;4885787;29;20028;-79
2021/04/02 08:37:58;;;;;;;7.93;5.53;;;10.00;62.40;;;;;;4889685;29;20033;-81
2021/04/02 08:40:24;;;;;;;10.20;6.25;;;9.90;62.60;;;;;;4884928;29;20060;-80
2021/04/02 08:42:51;;;;;;;7.93;6.10;;;9.90;62.40;;;;;;4884440;29;20479;-77
2021/04/02 08:45:19;;;;;;;11.07;6.75;;;10.00;62.30;;;;;;4878639;29;20519;-78
2021/04/02 08:47:48;;;;;;;7.78;5.93;;;10.00;62.30;;;;;;4878303;29;20502;-78
2021/04/02 08:50:15;;;;;;;7.10;6.30;;;10.00;62.20;;;;;;4878035;29;20041;-80
2021/04/02 08:52:41;;;;;;;9.73;6.22;;;10.30;61.50;;;;;;4879103;29;20502;-79
2021/04/02 08:55:09;;;;;;;8.15;6.60;;;10.40;60.90;;;;;;4884224;29;20039;-79
2021/04/02 08:57:37;;;;;;;8.90;6.40;;;10.20;61.40;;;;;;4887634;29;20040;-76
2021/04/02 09:00:08;;;;;;;6.63;5.75;;;10.00;61.80;;;;;;4890936;29;20040;-77
2021/04/02 09:02:37;;;;;;;8.23;6.50;;;10.30;61.60;;;;;;4880285;29;20427;-77
2021/04/02 09:05:06;;;;;;;7.00;5.95;;;10.10;61.40;;;;;;4879808;29;20052;-77
2021/04/02 09:07:40;;;;;;;8.57;6.30;;;10.10;61.70;;;;;;4881337;29;20048;-76
2021/04/02 09:10:15;;;;;;;6.93;5.93;;;10.10;61.40;;;;;;4884998;29;20037;-78
2021/04/02 09:12:46;;;;;;;8.20;5.72;;;10.10;61.20;;;;;;4877745;29;20053;-78
2021/04/02 09:15:21;;;;;;;7.57;6.07;;;10.30;61.10;;;;;;4885140;29;20041;-78
2021/04/02 09:17:47;;;;;;;8.20;6.63;;;10.30;61.20;;;;;;4879991;29;20029;-77
2021/04/02 09:20:15;;;;;;;9.43;6.55;;;10.40;61.10;;;;;;4891899;29;20033;-77
2021/04/02 09:22:43;;;;;;;9.15;6.50;;;10.80;60.10;;;;;;4889854;29;20502;-76
2021/04/02 09:25:15;;;;;;;6.75;5.97;;;10.40;60.60;;;;;;4892644;29;20033;-77
2021/04/02 09:27:41;;;;;;;8.45;6.30;;;10.80;60.60;;;;;;4892389;29;20063;-75
2021/04/02 09:30:08;;;;;;;6.85;5.93;;;11.60;58.20;;;;;;4902179;29;20040;-77
2021/04/02 09:32:35;;;;;;;7.10;5.40;;;12.30;56.90;;;;;;4900499;29;20036;-76
2021/04/02 09:35:04;;;;;;;6.80;5.82;;;12.40;56.40;;;;;;4903683;29;20048;-76
2021/04/02 09:37:32;;;;;;;6.25;5.65;;;12.50;55.30;;;;;;4887199;29;20395;-77
2021/04/02 09:40:04;;;;;;;7.32;5.18;;;12.10;56.50;;;;;;4881467;29;20049;-75
2021/04/02 09:42:34;;;;;;;6.35;5.75;;;11.50;57.10;;;;;;4880897;29;20042;-76
2021/04/02 09:45:08;;;;;;;7.13;5.63;;;10.90;58.50;;;;;;4885472;29;20394;-76
2021/04/02 09:47:47;;;;;;;5.95;5.35;;;10.80;58.90;;;;;;4891115;29;20638;-76
2021/04/02 09:50:15;;;;;;;7.15;6.03;;;10.70;58.60;;;;;;4885724;29;20029;-76
2021/04/02 09:52:43;;;;;;;6.15;5.43;;;10.60;58.70;;;;;;4896313;29;20043;-77
2021/04/02 09:55:11;;;;;;;8.13;5.63;;;10.80;58.90;;;;;;4900899;29;20338;-76
2021/04/02 09:57:38;;;;;;;7.43;6.10;;;11.20;58.00;;;;;;4902178;29;20040;-77
2021/04/02 10:00:09;;;;;;;8.35;5.22;;;11.50;57.50;;;;;;4898265;29;20060;-77
2021/04/02 10:02:37;;;;;;;6.72;5.40;;;11.40;57.50;;;;;;4893806;29;20052;-76
2021/04/02 10:05:06;;;;;;;6.13;5.20;;;11.50;57.30;;;;;;4895586;29;20043;-75
2021/04/02 10:07:33;;;;;;;6.40;4.65;;;11.30;57.10;;;;;;4896238;29;20057;-77
2021/04/02 10:09:59;;;;;;;6.72;5.60;;;10.90;57.50;;;;;;4899206;29;20028;-77
2021/04/02 10:12:25;;;;;;;7.07;5.55;;;10.80;58.40;;;;;;4904403;29;20059;-77
2021/04/02 10:14:51;;;;;;;6.22;5.22;;;10.90;57.90;;;;;;4903547;29;20035;-75
2021/04/02 10:17:18;;;;;;;6.85;5.05;;;11.30;57.80;;;;;;4895362;29;20036;-77
2021/04/02 10:19:44;;;;;;;10.32;9.30;;;11.70;56.30;;;;;;4900980;29;20062;-77
2021/04/02 10:22:11;;;;;;;8.40;6.35;;;11.80;56.10;;;;;;4899533;29;20056;-77
2021/04/02 10:24:37;;;;;;;6.82;4.40;;;11.60;56.30;;;;;;4893826;29;20584;-76
2021/04/02 10:27:03;;;;;;;5.88;5.25;;;12.10;55.80;;;;;;4899496;29;20055;-74
2021/04/02 10:29:31;;;;;;;5.53;4.28;;;12.00;55.50;;;;;;4901408;29;20025;-77
2021/04/02 10:31:57;;;;;;;5.93;4.75;;;11.70;56.00;;;;;;4889269;29;20040;-79
2021/04/02 10:34:24;;;;;;;5.55;4.90;;;11.30;57.10;;;;;;4889202;29;20049;-78
2021/04/02 10:36:51;;;;;;;9.23;5.38;;;11.40;57.00;;;;;;4899480;29;20501;-79
2021/04/02 10:39:18;;;;;;;6.55;4.47;;;11.60;56.70;;;;;;4890336;29;20387;-79
2021/04/02 10:41:44;;;;;;;5.70;4.75;;;11.20;57.30;;;;;;4893734;29;20079;-78
2021/04/02 10:44:10;;;;;;;7.03;4.93;;;11.40;57.30;;;;;;4881521;29;20475;-78
2021/04/02 10:46:38;;;;;;;5.70;4.38;;;11.70;56.10;;;;;;4890618;29;20349;-79
2021/04/02 10:49:04;;;;;;;7.10;4.88;;;12.40;55.80;;;;;;4890826;29;20045;-79
2021/04/02 10:51:30;;;;;;;8.80;7.88;;;12.30;55.50;;;;;;4881425;29;20041;-79
2021/04/02 10:54:03;;;;;;;6.22;5.00;;;12.10;56.10;;;;;;4887662;29;20048;-78
2021/04/02 10:56:31;;;;;;;6.00;4.93;;;11.60;56.50;;;;;;4878214;29;20049;-80
2021/04/02 10:58:58;;;;;;;5.70;4.18;;;11.30;57.40;;;;;;4879140;29;20045;-79
2021/04/02 11:01:24;;;;;;;6.00;4.30;;;11.70;56.70;;;;;;4885728;29;20041;-79
2021/04/02 11:03:51;;;;;;;5.78;4.80;;;12.20;56.60;;;;;;4889606;29;20041;-79
2021/04/02 11:06:17;;;;;;;4.22;3.55;;;12.50;55.30;;;;;;4888957;29;20376;-79
2021/04/02 11:08:43;;;;;;;4.88;3.90;;;12.70;55.10;;;;;;4894957;29;20059;-79
2021/04/02 11:11:09;;;;;;;5.15;4.25;;;12.20;56.20;;;;;;4902259;29;20039;-78
2021/04/02 11:13:36;;;;;;;6.63;5.43;;;11.70;56.70;;;;;;4904050;29;20099;-77
2021/04/02 11:16:03;;;;;;;8.32;4.38;;;11.30;57.60;;;;;;4895590;29;20040;-78
2021/04/02 11:18:29;;;;;;;5.50;4.40;;;11.50;57.40;;;;;;4891762;29;20028;-78
2021/04/02 11:20:55;;;;;;;8.07;4.80;;;11.90;56.40;;;;;;4887143;29;20037;-76
2021/04/02 11:23:22;;;;;;;7.20;4.88;;;11.50;56.70;;;;;;4879732;29;20047;-78
2021/04/02 11:25:48;;;;;;;7.15;4.20;;;11.50;57.80;;;;;;4878303;29;20053;-80
2021/04/02 11:28:14;;;;;;;6.20;4.95;;;11.70;56.80;;;;;;4879069;29;20106;-78
2021/04/02 11:30:41;;;;;;;5.38;4.43;;;12.00;56.50;;;;;;4878839;29;20056;-79
2021/04/02 11:33:07;;;;;;;5.65;4.03;;;12.40;55.20;;;;;;4881439;29;20045;-79
2021/04/02 11:35:33;;;;;;;5.15;4.55;;;12.70;55.30;;;;;;4893490;29;20040;-78
2021/04/02 11:38:01;;;;;;;5.00;3.97;;;12.00;56.20;;;;;;4878647;29;20033;-79
2021/04/02 11:40:28;;;;;;;5.55;3.83;;;12.20;55.80;;;;;;4879342;29;20394;-77
2021/04/02 11:42:54;;;;;;;4.72;3.83;;;12.10;56.40;;;;;;4878671;29;20069;-75
2021/04/02 11:45:21;;;;;;;6.47;5.00;;;12.20;56.10;;;;;;4878332;29;20033;-79
2021/04/02 11:47:47;;;;;;;7.85;4.75;;;11.60;57.30;;;;;;4879441;29;20056;-79
2021/04/02 11:50:14;;;;;;;6.05;4.65;;;11.30;58.90;;;;;;4878568;29;20037;-75
2021/04/02 11:52:41;;;;;;;5.90;4.78;;;11.70;57.60;;;;;;4878938;29;20037;-76
2021/04/02 11:55:09;;;;;;;6.07;4.50;;;11.50;58.10;;;;;;4878375;29;20056;-77
2021/04/02 11:57:36;;;;;;;5.75;4.38;;;11.80;57.80;;;;;;4879079;29;20363;-78
2021/04/02 12:00:07;;;;;;;8.10;4.68;;;12.00;56.20;;;;;;4878267;29;20041;-78
2021/04/02 12:02:38;;;;;;;5.03;4.20;;;11.70;56.90;;;;;;4884935;29;20060;-79
2021/04/02 12:05:06;;;;;;;5.95;5.05;;;11.70;57.70;;;;;;4891185;29;20351;-78
2021/04/02 12:07:32;;;;;;;9.38;5.15;;;12.00;58.10;;;;;;4878878;29;20476;-80
2021/04/02 12:09:58;;;;;;;6.80;4.60;;;11.90;57.50;;;;;;4878333;29;20049;-79
2021/04/02 12:12:25;;;;;;;7.40;4.70;;;11.50;58.10;;;;;;4878727;29;20383;-79
2021/04/02 12:14:51;;;;;;;7.32;5.32;;;11.40;58.50;;;;;;4878794;29;20033;-77
2021/04/02 12:17:17;;;;;;;6.57;5.28;;;11.40;58.70;;;;;;4884877;29;20474;-76
2021/04/02 12:19:44;;;;;;;6.95;4.95;;;11.80;57.50;;;;;;4894812;29;20125;-77
2021/04/02 12:22:10;;;;;;;7.78;5.60;;;11.90;57.60;;;;;;4887956;29;20414;-77
2021/04/02 12:24:37;;;;;;;10.68;5.25;;;12.20;56.90;;;;;;4890669;29;20104;-77
2021/04/02 12:27:05;;;;;;;7.18;5.10;;;11.80;57.30;;;;;;4894737;29;20051;-79
2021/04/02 12:29:32;;;;;;;7.60;5.90;;;11.60;57.80;;;;;;4892730;29;20033;-77
2021/04/02 12:31:58;;;;;;;8.45;5.57;;;11.40;57.90;;;;;;4883062;29;20041;-77
2021/04/02 12:34:24;;;;;;;6.45;5.10;;;11.50;58.20;;;;;;4887092;29;20032;-74
2021/04/02 12:36:51;;;;;;;6.47;5.40;;;11.60;58.00;;;;;;4878473;29;20045;-76
2021/04/02 12:39:17;;;;;;;9.10;5.82;;;11.80;58.30;;;;;;4878221;29;20041;-76
2021/04/02 12:41:43;;;;;;;8.40;6.13;;;11.80;57.70;;;;;;4878574;29;20045;-75
2021/04/02 12:44:09;;;;;;;6.18;5.03;;;12.00;57.40;;;;;;4878389;29;20052;-77
2021/04/02 12:46:36;;;;;;;7.28;5.97;;;12.00;56.70;;;;;;4878155;29;20063;-76
2021/04/02 12:49:02;;;;;;;9.75;6.18;;;11.80;57.30;;;;;;4876873;29;20052;-76
2021/04/02 12:51:28;;;;;;;12.02;6.15;;;11.80;57.20;;;;;;4878472;29;20044;-77
2021/04/02 12:53:55;;;;;;;7.40;5.18;;;12.00;58.40;;;;;;4880101;29;20044;-74
2021/04/02 12:56:21;;;;;;;6.57;5.00;;;12.00;57.00;;;;;;4894609;29;20037;-76
2021/04/02 12:58:47;;;;;;;7.78;5.68;;;11.90;57.40;;;;;;4885028;29;20037;-76